createdAt,value
2022-09-15T00:03:13.584Z,76.43
2022-09-15T00:08:16.856Z,76.61
2022-09-15T00:13:21.856Z,76.75
2022-09-15T00:18:25.939Z,76.88
2022-09-15T00:23:28.928Z,76.97
2022-09-15T00:28:32.625Z,77.25
2022-09-15T00:33:36.790Z,77.45
2022-09-15T00:38:41.095Z,77.55
2022-09-15T00:43:52.533Z,77.74
2022-09-15T00:49:30.231Z,77.67
2022-09-15T00:55:08.572Z,77.96
2022-09-15T01:00:16.269Z,77.80
2022-09-15T01:05:23.478Z,77.52
2022-09-15T01:10:37.239Z,77.62
2022-09-15T01:22:13.515Z,78.04
2022-09-15T01:27:58.971Z,78.03
2022-09-15T01:33:26.012Z,77.97
2022-09-15T01:39:02.627Z,77.91
2022-09-15T01:44:09.215Z,77.36
2022-09-15T01:49:17.657Z,77.55
2022-09-15T01:54:29.032Z,77.62
2022-09-15T01:59:32.004Z,77.51
2022-09-15T02:05:25.474Z,77.49
2022-09-15T02:11:30.589Z,77.40
2022-09-15T02:16:36.110Z,77.40
2022-09-15T02:22:12.807Z,77.10
2022-09-15T02:27:29.144Z,77.16
2022-09-15T02:32:35.200Z,77.89
2022-09-15T02:37:39.158Z,77.45
2022-09-15T02:42:53.835Z,77.77
2022-09-15T02:48:00.355Z,78.05
2022-09-15T02:53:04.339Z,78.63
2022-09-15T02:58:07.581Z,78.89
2022-09-15T03:03:10.433Z,79.15
2022-09-15T03:08:14.096Z,79.66
2022-09-15T03:13:18.660Z,79.71
2022-09-15T03:18:21.625Z,79.72
2022-09-15T03:23:24.587Z,79.76
2022-09-15T03:28:28.501Z,79.66
2022-09-15T03:33:31.614Z,79.83
2022-09-15T03:38:35.009Z,80.08
2022-09-15T03:43:39.408Z,80.10
2022-09-15T03:48:42.366Z,79.72
2022-09-15T03:53:45.373Z,79.51
2022-09-15T03:58:48.496Z,79.53
2022-09-15T04:03:51.904Z,79.55
2022-09-15T04:08:55.833Z,79.77
2022-09-15T04:13:59.051Z,79.78
2022-09-15T04:19:01.886Z,79.57
2022-09-15T04:24:06.593Z,79.64
2022-09-15T04:29:16.515Z,79.43
2022-09-15T04:34:19.552Z,79.19
2022-09-15T04:39:22.622Z,79.06
2022-09-15T04:44:25.597Z,78.96
2022-09-15T04:49:29.227Z,78.97
2022-09-15T04:54:35.053Z,78.88
2022-09-15T04:59:38.363Z,79.27
2022-09-15T05:04:41.464Z,79.32
2022-09-15T05:09:44.483Z,79.58
2022-09-15T05:14:47.435Z,79.37
2022-09-15T05:19:50.401Z,79.31
2022-09-15T05:24:53.476Z,79.23
2022-09-15T05:30:10.879Z,78.75
2022-09-15T05:35:20.139Z,78.66
2022-09-15T05:40:23.227Z,78.64
2022-09-15T05:45:26.185Z,78.50
2022-09-15T05:50:29.224Z,78.69
2022-09-15T05:55:38.146Z,78.76
2022-09-15T06:00:42.641Z,78.96
2022-09-15T06:05:45.858Z,79.49
2022-09-15T06:10:48.825Z,80.21
2022-09-15T06:15:51.806Z,80.59
2022-09-15T06:20:54.840Z,80.71
2022-09-15T06:26:05.326Z,80.76
2022-09-15T06:31:13.625Z,81.27
2022-09-15T06:36:17.107Z,81.10
2022-09-15T06:41:20.579Z,81.03
2022-09-15T06:46:26.748Z,81.25
2022-09-15T06:51:35.489Z,81.54
2022-09-15T06:56:38.679Z,80.97
2022-09-15T07:01:43.150Z,80.37
2022-09-15T07:06:46.246Z,79.97
2022-09-15T07:11:49.295Z,80.05
2022-09-15T07:16:52.262Z,79.56
2022-09-15T07:21:55.240Z,79.62
2022-09-15T07:26:58.530Z,79.52
2022-09-15T07:32:02.416Z,79.68
2022-09-15T07:37:06.470Z,79.19
2022-09-15T07:42:09.635Z,79.12
2022-09-15T07:47:12.599Z,79.07
2022-09-15T07:52:17.546Z,78.41
2022-09-15T07:57:21.490Z,79.01
2022-09-15T08:02:39.782Z,78.85
2022-09-15T08:08:06.661Z,79.17
2022-09-15T08:13:12.402Z,78.31
2022-09-15T08:18:23.335Z,78.29
2022-09-15T08:23:26.786Z,78.04
2022-09-15T08:28:29.744Z,76.85
2022-09-15T08:33:33.905Z,77.80
2022-09-15T08:38:39.591Z,77.65
2022-09-15T08:43:55.361Z,77.66
2022-09-15T08:49:13.241Z,77.55
2022-09-15T08:54:25.455Z,77.20
2022-09-15T08:59:35.333Z,76.33
2022-09-15T09:05:29.726Z,75.26
2022-09-15T09:10:56.886Z,74.92
2022-09-15T09:16:34.028Z,74.38
2022-09-15T09:21:46.703Z,74.66
2022-09-15T09:26:55.480Z,74.62
2022-09-15T09:31:59.596Z,73.81
2022-09-15T09:37:16.108Z,74.40
2022-09-15T09:42:19.847Z,75.23
2022-09-15T09:47:29.845Z,75.07
2022-09-15T09:52:39.937Z,74.11
2022-09-15T09:57:42.951Z,73.45
2022-09-15T10:02:49.033Z,73.14
2022-09-15T10:07:52.128Z,71.37
2022-09-15T10:12:56.829Z,72.12
2022-09-15T10:18:01.867Z,72.57
2022-09-15T10:23:34.356Z,72.09
2022-09-15T10:28:37.656Z,71.41
2022-09-15T10:33:45.181Z,69.85
2022-09-15T10:39:06.346Z,70.10
2022-09-15T10:44:57.845Z,68.64
2022-09-15T10:50:13.042Z,66.88
2022-09-15T10:55:58.895Z,65.67
2022-09-15T11:01:26.745Z,65.88
2022-09-15T11:06:54.360Z,65.95
2022-09-15T11:12:35.564Z,66.68
2022-09-15T11:18:23.662Z,66.95
2022-09-15T11:23:47.260Z,67.29
2022-09-15T11:29:22.680Z,67.55
2022-09-15T11:34:34.984Z,67.73
2022-09-15T11:39:58.775Z,67.02
2022-09-15T11:45:03.766Z,65.47
2022-09-15T11:50:28.549Z,65.66
2022-09-15T11:55:40.095Z,65.29
2022-09-15T12:00:54.855Z,65.09
2022-09-15T12:06:08.840Z,65.22
2022-09-15T12:11:23.579Z,65.43
2022-09-15T12:16:29.288Z,65.47
2022-09-15T12:21:37.272Z,65.64
2022-09-15T12:26:43.557Z,64.92
2022-09-15T12:31:47.300Z,65.28
2022-09-15T12:36:56.358Z,65.16
2022-09-15T12:42:20.684Z,65.60
2022-09-15T12:47:30.045Z,65.43
2022-09-15T12:52:47.816Z,66.21
2022-09-15T12:58:10.874Z,66.27
2022-09-15T13:08:56.344Z,65.52
2022-09-15T13:14:07.987Z,65.07
2022-09-15T13:19:20.033Z,65.01
2022-09-15T13:24:59.270Z,65.27
2022-09-15T13:30:24.427Z,65.36
2022-09-15T13:35:52.500Z,65.74
2022-09-15T13:41:40.324Z,66.15
2022-09-15T13:46:50.024Z,66.15
2022-09-15T13:52:10.789Z,66.11
2022-09-15T13:57:14.361Z,66.18
2022-09-15T14:02:17.952Z,65.86
2022-09-15T14:07:25.391Z,65.75
2022-09-15T14:12:29.073Z,65.66
2022-09-15T14:17:33.286Z,65.77
2022-09-15T14:22:36.422Z,65.68
2022-09-15T14:27:43.509Z,65.74
2022-09-15T14:32:52.306Z,65.72
2022-09-15T14:37:58.942Z,65.67
2022-09-15T14:43:03.396Z,65.65
2022-09-15T14:48:28.493Z,65.76
2022-09-15T14:53:38.160Z,66.02
2022-09-15T14:59:02.513Z,66.27
2022-09-15T15:04:16.758Z,66.43
2022-09-15T15:09:32.302Z,66.64
2022-09-15T15:14:36.487Z,66.69
2022-09-15T15:19:42.508Z,66.45
2022-09-15T15:24:50.265Z,66.53
2022-09-15T15:29:53.820Z,66.62
2022-09-15T15:35:01.484Z,67.07
2022-09-15T15:40:14.319Z,66.62
2022-09-15T15:45:25.783Z,66.67
2022-09-15T15:50:32.482Z,66.82
2022-09-15T15:55:44.258Z,67.07
2022-09-15T16:00:56.975Z,67.03
2022-09-15T16:06:00.650Z,66.93
2022-09-15T16:11:04.875Z,67.00
2022-09-15T16:16:25.598Z,67.06
2022-09-15T16:21:37.282Z,67.22
2022-09-15T16:26:41.656Z,67.27
2022-09-15T16:31:45.719Z,67.50
2022-09-15T16:36:48.915Z,67.48
2022-09-15T16:41:51.902Z,67.48
2022-09-15T16:46:55.237Z,67.44
2022-09-15T16:51:58.630Z,67.51
2022-09-15T16:57:01.867Z,67.78
2022-09-15T17:02:14.187Z,68.08
2022-09-15T17:07:18.089Z,68.76
2022-09-15T17:12:22.609Z,69.41
2022-09-15T17:17:26.241Z,69.48
2022-09-15T17:22:29.901Z,69.66
2022-09-15T17:27:33.227Z,69.75
2022-09-15T17:32:36.165Z,69.78
2022-09-15T17:37:39.388Z,70.00
2022-09-15T17:42:42.853Z,69.98
2022-09-15T17:47:47.330Z,70.32
2022-09-15T17:52:50.644Z,70.52
2022-09-15T17:57:55.821Z,70.68
2022-09-15T18:03:15.036Z,70.59
2022-09-15T18:08:18.232Z,70.41
2022-09-15T18:13:24.125Z,70.54
2022-09-15T18:18:28.445Z,70.71
2022-09-15T18:23:31.571Z,70.32
2022-09-15T18:28:34.683Z,70.51
2022-09-15T18:33:37.908Z,70.67
2022-09-15T18:38:42.263Z,70.94
2022-09-15T18:43:49.343Z,71.15
2022-09-15T18:48:53.001Z,71.04
2022-09-15T18:53:57.661Z,71.10
2022-09-15T18:59:01.892Z,71.12
2022-09-15T19:04:05.007Z,71.45
2022-09-15T19:09:08.187Z,71.64
2022-09-15T19:14:11.425Z,71.84
2022-09-15T19:19:15.438Z,72.04
2022-09-15T19:24:18.597Z,71.74
2022-09-15T19:29:21.718Z,71.73
2022-09-15T19:34:24.707Z,71.78
2022-09-15T19:39:27.832Z,71.64
2022-09-15T19:44:30.819Z,71.70
2022-09-15T19:49:33.926Z,71.65
2022-09-15T19:54:36.936Z,71.82
2022-09-15T19:59:39.954Z,71.29
2022-09-15T20:10:05.053Z,71.61
2022-09-15T20:15:08.804Z,71.55
2022-09-15T20:20:11.976Z,71.42
2022-09-15T20:25:15.733Z,71.16
2022-09-15T20:30:22.756Z,71.17
2022-09-15T20:35:25.806Z,71.23
2022-09-15T20:40:28.804Z,71.33
2022-09-15T20:45:36.485Z,71.48
2022-09-15T20:50:40.071Z,71.42
2022-09-15T20:55:50.476Z,71.23
2022-09-15T21:01:07.340Z,71.15
2022-09-15T21:06:16.721Z,71.26
2022-09-15T21:11:21.670Z,71.33
2022-09-15T21:16:28.232Z,71.39
2022-09-15T21:21:33.963Z,71.05
2022-09-15T21:27:00.453Z,70.77
2022-09-15T21:32:03.701Z,70.90
2022-09-15T21:37:06.746Z,70.83
2022-09-15T21:42:12.465Z,71.05
2022-09-15T21:47:16.011Z,71.16
2022-09-15T21:52:19.682Z,71.27
2022-09-15T21:57:23.529Z,71.09
2022-09-15T22:02:26.657Z,70.98
2022-09-15T22:07:29.677Z,71.12
2022-09-15T22:12:32.733Z,71.22
2022-09-15T22:17:35.774Z,71.49
2022-09-15T22:22:38.782Z,71.57
2022-09-15T22:27:42.536Z,71.49
2022-09-15T22:32:45.592Z,71.45
2022-09-15T22:37:48.606Z,71.51
2022-09-15T22:42:51.531Z,71.49
2022-09-15T22:47:54.534Z,71.67
2022-09-15T22:52:57.613Z,71.75
2022-09-15T22:58:00.563Z,71.55
2022-09-15T23:03:03.705Z,71.52
2022-09-15T23:08:06.753Z,71.38
2022-09-15T23:13:09.726Z,71.32
2022-09-15T23:18:12.702Z,71.46
2022-09-15T23:23:15.708Z,71.42
2022-09-15T23:28:19.360Z,71.39
2022-09-15T23:33:24.258Z,71.31
2022-09-15T23:38:28.084Z,71.21
2022-09-15T23:43:32.227Z,71.26
2022-09-15T23:48:35.583Z,71.28
2022-09-15T23:53:38.676Z,71.40
2022-09-15T23:58:41.753Z,71.32
